sensor_id;sensor_type;location;lat;lon;timestamp;pressure;altitude;pressure_sealevel;temperature;humidity
7474;BME280;3778;42.572;23.426;2024-03-17T00:01:13;93873.53;;;5.29;76.48
7474;BME280;3778;42.572;23.426;2024-03-17T00:03:38;93868.53;;;5.34;75.49
7474;BME280;3778;42.572;23.426;2024-03-17T00:06:03;93866.19;;;5.32;75.22
7474;BME280;3778;42.572;23.426;2024-03-17T00:08:29;93861.53;;;5.18;76.36
7474;BME280;3778;42.572;23.426;2024-03-17T00:10:56;93867.19;;;5.20;76.72
7474;BME280;3778;42.572;23.426;2024-03-17T00:13:23;93871.97;;;5.16;77.40
7474;BME280;3778;42.572;23.426;2024-03-17T00:15:49;93861.41;;;5.24;76.70
7474;BME280;3778;42.572;23.426;2024-03-17T00:18:14;93860.28;;;5.20;75.93
7474;BME280;3778;42.572;23.426;2024-03-17T00:20:40;93861.19;;;5.14;76.18
7474;BME280;3778;42.572;23.426;2024-03-17T00:23:06;93869.19;;;5.06;77.90
7474;BME280;3778;42.572;23.426;2024-03-17T00:25:33;93861.84;;;4.98;77.40
7474;BME280;3778;42.572;23.426;2024-03-17T00:28:00;93859.84;;;5.00;77.15
7474;BME280;3778;42.572;23.426;2024-03-17T00:30:25;93864.84;;;5.06;77.27
7474;BME280;3778;42.572;23.426;2024-03-17T00:32:51;93860.19;;;4.92;77.20
7474;BME280;3778;42.572;23.426;2024-03-17T00:35:17;93861.16;;;5.02;76.75
7474;BME280;3778;42.572;23.426;2024-03-17T00:37:49;93862.03;;;4.96;77.96
7474;BME280;3778;42.572;23.426;2024-03-17T00:40:16;93860.91;;;4.69;78.19
7474;BME280;3778;42.572;23.426;2024-03-17T00:42:42;93858.47;;;4.74;77.76
7474;BME280;3778;42.572;23.426;2024-03-17T00:45:08;93860.22;;;4.62;78.47
7474;BME280;3778;42.572;23.426;2024-03-17T00:47:35;93856.56;;;4.69;77.98
7474;BME280;3778;42.572;23.426;2024-03-17T00:50:01;93854.66;;;4.65;78.07
7474;BME280;3778;42.572;23.426;2024-03-17T00:52:26;93851.97;;;4.60;78.18
7474;BME280;3778;42.572;23.426;2024-03-17T00:54:52;93853.44;;;4.55;79.05
7474;BME280;3778;42.572;23.426;2024-03-17T00:57:19;93858.06;;;4.47;79.79
7474;BME280;3778;42.572;23.426;2024-03-17T00:59:44;93860.06;;;4.45;79.32
7474;BME280;3778;42.572;23.426;2024-03-17T01:02:14;93855.59;;;4.40;79.06
7474;BME280;3778;42.572;23.426;2024-03-17T01:04:42;93867.44;;;4.35;79.79
7474;BME280;3778;42.572;23.426;2024-03-17T01:07:08;93858.47;;;4.32;80.44
7474;BME280;3778;42.572;23.426;2024-03-17T01:09:34;93861.56;;;4.34;80.51
7474;BME280;3778;42.572;23.426;2024-03-17T01:12:00;93857.00;;;4.36;79.43
7474;BME280;3778;42.572;23.426;2024-03-17T01:14:26;93858.38;;;4.39;79.69
7474;BME280;3778;42.572;23.426;2024-03-17T01:16:52;93859.78;;;4.35;79.85
7474;BME280;3778;42.572;23.426;2024-03-17T01:19:18;93855.00;;;4.26;79.39
7474;BME280;3778;42.572;23.426;2024-03-17T01:21:43;93854.84;;;4.21;80.52
7474;BME280;3778;42.572;23.426;2024-03-17T01:24:09;93863.50;;;4.20;80.39
7474;BME280;3778;42.572;23.426;2024-03-17T01:26:34;93862.06;;;4.24;79.64
7474;BME280;3778;42.572;23.426;2024-03-17T01:29:00;93857.19;;;4.23;80.29
7474;BME280;3778;42.572;23.426;2024-03-17T01:31:27;93858.81;;;4.17;79.67
7474;BME280;3778;42.572;23.426;2024-03-17T01:33:52;93859.03;;;4.16;80.49
7474;BME280;3778;42.572;23.426;2024-03-17T01:36:17;93861.13;;;4.07;81.13
7474;BME280;3778;42.572;23.426;2024-03-17T01:38:43;93864.22;;;4.09;80.36
7474;BME280;3778;42.572;23.426;2024-03-17T01:41:08;93864.59;;;4.13;80.65
7474;BME280;3778;42.572;23.426;2024-03-17T01:43:34;93858.06;;;4.17;79.80
7474;BME280;3778;42.572;23.426;2024-03-17T01:46:00;93867.06;;;4.19;79.64
7474;BME280;3778;42.572;23.426;2024-03-17T01:48:27;93860.72;;;4.22;80.20
7474;BME280;3778;42.572;23.426;2024-03-17T01:50:55;93868.75;;;4.25;79.47
7474;BME280;3778;42.572;23.426;2024-03-17T01:53:22;93862.81;;;4.13;80.11
7474;BME280;3778;42.572;23.426;2024-03-17T01:55:52;93865.00;;;4.10;79.96
7474;BME280;3778;42.572;23.426;2024-03-17T01:58:20;93865.38;;;3.95;80.43
7474;BME280;3778;42.572;23.426;2024-03-17T02:00:47;93865.72;;;3.98;80.38
7474;BME280;3778;42.572;23.426;2024-03-17T02:03:13;93865.03;;;3.91;80.34
7474;BME280;3778;42.572;23.426;2024-03-17T02:05:39;93857.47;;;3.85;80.93
7474;BME280;3778;42.572;23.426;2024-03-17T02:08:05;93863.75;;;3.82;81.98
7474;BME280;3778;42.572;23.426;2024-03-17T02:10:32;93863.81;;;3.75;81.45
7474;BME280;3778;42.572;23.426;2024-03-17T02:12:58;93855.97;;;3.77;81.16
7474;BME280;3778;42.572;23.426;2024-03-17T02:15:25;93864.97;;;3.80;80.74
7474;BME280;3778;42.572;23.426;2024-03-17T02:17:50;93857.59;;;3.71;81.43
7474;BME280;3778;42.572;23.426;2024-03-17T02:20:16;93866.28;;;3.64;82.41
7474;BME280;3778;42.572;23.426;2024-03-17T02:22:41;93860.63;;;3.62;82.37
7474;BME280;3778;42.572;23.426;2024-03-17T02:25:07;93862.25;;;3.56;82.60
7474;BME280;3778;42.572;23.426;2024-03-17T02:27:34;93871.13;;;3.54;82.67
7474;BME280;3778;42.572;23.426;2024-03-17T02:30:00;93863.03;;;3.57;82.65
7474;BME280;3778;42.572;23.426;2024-03-17T02:32:26;93860.94;;;3.54;83.04
7474;BME280;3778;42.572;23.426;2024-03-17T02:34:53;93862.31;;;3.49;82.61
7474;BME280;3778;42.572;23.426;2024-03-17T02:37:19;93858.06;;;3.43;81.99
7474;BME280;3778;42.572;23.426;2024-03-17T02:39:44;93860.06;;;3.41;82.86
7474;BME280;3778;42.572;23.426;2024-03-17T02:42:10;93853.91;;;3.49;82.49
7474;BME280;3778;42.572;23.426;2024-03-17T02:44:38;93863.94;;;3.44;83.01
7474;BME280;3778;42.572;23.426;2024-03-17T02:47:05;93860.41;;;3.45;81.89
7474;BME280;3778;42.572;23.426;2024-03-17T02:49:31;93858.63;;;3.45;82.49
7474;BME280;3778;42.572;23.426;2024-03-17T02:52:03;93858.22;;;3.48;83.05
7474;BME280;3778;42.572;23.426;2024-03-17T02:54:30;93860.00;;;3.48;81.17
7474;BME280;3778;42.572;23.426;2024-03-17T02:56:55;93860.06;;;3.41;82.45
7474;BME280;3778;42.572;23.426;2024-03-17T02:59:21;93854.19;;;3.41;81.93
7474;BME280;3778;42.572;23.426;2024-03-17T03:01:46;93862.00;;;3.46;82.08
7474;BME280;3778;42.572;23.426;2024-03-17T03:04:12;93860.84;;;3.42;82.20
7474;BME280;3778;42.572;23.426;2024-03-17T03:06:38;93856.88;;;3.28;82.27
7474;BME280;3778;42.572;23.426;2024-03-17T03:09:04;93852.03;;;3.19;83.03
7474;BME280;3778;42.572;23.426;2024-03-17T03:11:35;93856.19;;;2.89;84.82
7474;BME280;3778;42.572;23.426;2024-03-17T03:14:00;93863.72;;;2.77;85.39
7474;BME280;3778;42.572;23.426;2024-03-17T03:16:27;93859.66;;;2.69;85.26
7474;BME280;3778;42.572;23.426;2024-03-17T03:18:53;93857.78;;;2.58;85.33
7474;BME280;3778;42.572;23.426;2024-03-17T03:21:19;93857.44;;;2.48;86.75
7474;BME280;3778;42.572;23.426;2024-03-17T03:23:47;93851.59;;;2.48;85.54
7474;BME280;3778;42.572;23.426;2024-03-17T03:26:12;93854.72;;;2.50;86.58
7474;BME280;3778;42.572;23.426;2024-03-17T03:28:38;93862.50;;;2.55;87.09
7474;BME280;3778;42.572;23.426;2024-03-17T03:31:04;93856.63;;;2.54;86.84
7474;BME280;3778;42.572;23.426;2024-03-17T03:33:30;93856.44;;;2.56;85.46
7474;BME280;3778;42.572;23.426;2024-03-17T03:35:55;93859.94;;;2.55;85.26
7474;BME280;3778;42.572;23.426;2024-03-17T03:38:21;93861.19;;;2.46;86.02
7474;BME280;3778;42.572;23.426;2024-03-17T03:40:50;93864.75;;;2.38;86.66
7474;BME280;3778;42.572;23.426;2024-03-17T03:43:17;93862.06;;;2.33;86.35
7474;BME280;3778;42.572;23.426;2024-03-17T03:45:43;93866.19;;;2.27;86.24
7474;BME280;3778;42.572;23.426;2024-03-17T03:48:08;93862.09;;;2.26;86.58
7474;BME280;3778;42.572;23.426;2024-03-17T03:50:34;93874.78;;;2.33;86.51
7474;BME280;3778;42.572;23.426;2024-03-17T03:53:00;93872.63;;;2.30;86.27
7474;BME280;3778;42.572;23.426;2024-03-17T03:55:25;93871.66;;;2.24;87.08
7474;BME280;3778;42.572;23.426;2024-03-17T03:57:51;93873.25;;;2.25;86.28
7474;BME280;3778;42.572;23.426;2024-03-17T04:00:20;93874.19;;;2.31;87.41
7474;BME280;3778;42.572;23.426;2024-03-17T04:02:50;93874.38;;;2.29;87.68
7474;BME280;3778;42.572;23.426;2024-03-17T04:05:17;93879.25;;;2.37;87.08
7474;BME280;3778;42.572;23.426;2024-03-17T04:07:43;93883.91;;;2.40;85.99
7474;BME280;3778;42.572;23.426;2024-03-17T04:10:12;93881.97;;;2.36;86.68
7474;BME280;3778;42.572;23.426;2024-03-17T04:12:37;93881.78;;;2.37;86.35
7474;BME280;3778;42.572;23.426;2024-03-17T04:15:03;93891.00;;;2.32;86.27
7474;BME280;3778;42.572;23.426;2024-03-17T04:17:31;93890.38;;;2.36;86.80
7474;BME280;3778;42.572;23.426;2024-03-17T04:19:58;93887.84;;;2.36;86.34
7474;BME280;3778;42.572;23.426;2024-03-17T04:22:23;93881.22;;;2.29;85.69
7474;BME280;3778;42.572;23.426;2024-03-17T04:24:50;93886.31;;;2.29;85.70
7474;BME280;3778;42.572;23.426;2024-03-17T04:27:27;93897.69;;;2.26;86.89
7474;BME280;3778;42.572;23.426;2024-03-17T04:29:54;93904.75;;;2.18;86.18
7474;BME280;3778;42.572;23.426;2024-03-17T04:32:20;93905.56;;;2.11;86.74
7474;BME280;3778;42.572;23.426;2024-03-17T04:34:46;93904.25;;;2.02;87.46
7474;BME280;3778;42.572;23.426;2024-03-17T04:37:15;93904.44;;;1.94;88.04
7474;BME280;3778;42.572;23.426;2024-03-17T04:39:41;93915.41;;;2.01;87.30
7474;BME280;3778;42.572;23.426;2024-03-17T04:42:11;93907.94;;;2.00;86.83
7474;BME280;3778;42.572;23.426;2024-03-17T04:44:37;93915.78;;;1.98;86.20
7474;BME280;3778;42.572;23.426;2024-03-17T04:47:03;93913.25;;;1.98;87.22
7474;BME280;3778;42.572;23.426;2024-03-17T04:49:34;93928.09;;;2.08;86.96
7474;BME280;3778;42.572;23.426;2024-03-17T04:52:00;93927.47;;;2.06;87.14
7474;BME280;3778;42.572;23.426;2024-03-17T04:54:25;93930.66;;;2.01;86.93
7474;BME280;3778;42.572;23.426;2024-03-17T04:56:51;93938.84;;;2.03;87.19
7474;BME280;3778;42.572;23.426;2024-03-17T04:59:16;93938.47;;;2.06;86.47
7474;BME280;3778;42.572;23.426;2024-03-17T05:01:42;93940.81;;;2.01;87.55
7474;BME280;3778;42.572;23.426;2024-03-17T05:04:07;93938.63;;;2.05;86.19
7474;BME280;3778;42.572;23.426;2024-03-17T05:06:33;93939.81;;;2.02;86.24
7474;BME280;3778;42.572;23.426;2024-03-17T05:08:59;93940.22;;;1.99;86.62
7474;BME280;3778;42.572;23.426;2024-03-17T05:11:24;93953.13;;;2.04;85.90
7474;BME280;3778;42.572;23.426;2024-03-17T05:13:49;93943.94;;;1.97;86.22
7474;BME280;3778;42.572;23.426;2024-03-17T05:16:15;93953.69;;;2.00;86.04
7474;BME280;3778;42.572;23.426;2024-03-17T05:18:41;93950.19;;;1.94;86.45
7474;BME280;3778;42.572;23.426;2024-03-17T05:21:07;93953.94;;;1.92;86.75
7474;BME280;3778;42.572;23.426;2024-03-17T05:23:35;93952.16;;;1.92;87.01
7474;BME280;3778;42.572;23.426;2024-03-17T05:26:02;93959.19;;;2.03;86.75
7474;BME280;3778;42.572;23.426;2024-03-17T05:28:31;93963.44;;;2.16;86.52
7474;BME280;3778;42.572;23.426;2024-03-17T05:30:57;93964.41;;;2.22;85.47
7474;BME280;3778;42.572;23.426;2024-03-17T05:33:23;93963.56;;;2.34;85.97
7474;BME280;3778;42.572;23.426;2024-03-17T05:35:54;93961.22;;;2.39;86.55
7474;BME280;3778;42.572;23.426;2024-03-17T05:38:23;93965.66;;;2.51;85.36
7474;BME280;3778;42.572;23.426;2024-03-17T05:40:53;93959.56;;;2.58;84.16
7474;BME280;3778;42.572;23.426;2024-03-17T05:43:20;93961.28;;;2.64;84.52
7474;BME280;3778;42.572;23.426;2024-03-17T05:45:45;93956.53;;;2.75;84.76
7474;BME280;3778;42.572;23.426;2024-03-17T05:48:11;93961.94;;;2.85;83.38
7474;BME280;3778;42.572;23.426;2024-03-17T05:50:36;93958.06;;;2.82;83.42
7474;BME280;3778;42.572;23.426;2024-03-17T05:53:02;93958.84;;;2.83;83.69
7474;BME280;3778;42.572;23.426;2024-03-17T05:55:28;93957.81;;;2.90;82.97
7474;BME280;3778;42.572;23.426;2024-03-17T05:57:53;93964.56;;;3.03;83.31
7474;BME280;3778;42.572;23.426;2024-03-17T06:00:19;93959.88;;;3.07;83.06
7474;BME280;3778;42.572;23.426;2024-03-17T06:02:44;93961.06;;;3.04;83.22
7474;BME280;3778;42.572;23.426;2024-03-17T06:05:11;93957.88;;;3.09;82.31
7474;BME280;3778;42.572;23.426;2024-03-17T06:07:39;93954.88;;;3.18;82.22
7474;BME280;3778;42.572;23.426;2024-03-17T06:10:05;93966.75;;;3.31;82.75
7474;BME280;3778;42.572;23.426;2024-03-17T06:12:31;93967.06;;;3.41;81.76
7474;BME280;3778;42.572;23.426;2024-03-17T06:14:56;93959.94;;;3.50;82.60
7474;BME280;3778;42.572;23.426;2024-03-17T06:17:22;93967.69;;;3.62;81.88
7474;BME280;3778;42.572;23.426;2024-03-17T06:19:47;93968.00;;;3.72;81.20
7474;BME280;3778;42.572;23.426;2024-03-17T06:22:13;93963.91;;;3.89;81.10
7474;BME280;3778;42.572;23.426;2024-03-17T06:24:38;93971.28;;;3.97;80.30
7474;BME280;3778;42.572;23.426;2024-03-17T06:27:04;93969.03;;;4.08;79.65
7474;BME280;3778;42.572;23.426;2024-03-17T06:29:32;93965.19;;;4.17;79.05
7474;BME280;3778;42.572;23.426;2024-03-17T06:31:58;93974.19;;;4.19;79.47
7474;BME280;3778;42.572;23.426;2024-03-17T06:34:23;93974.69;;;4.28;79.42
7474;BME280;3778;42.572;23.426;2024-03-17T06:36:49;93977.72;;;4.37;79.72
7474;BME280;3778;42.572;23.426;2024-03-17T06:39:14;93976.00;;;4.49;79.47
7474;BME280;3778;42.572;23.426;2024-03-17T06:41:42;93972.03;;;4.53;79.00
7474;BME280;3778;42.572;23.426;2024-03-17T06:44:08;93983.84;;;4.66;78.72
7474;BME280;3778;42.572;23.426;2024-03-17T06:46:33;93982.91;;;4.78;77.66
7474;BME280;3778;42.572;23.426;2024-03-17T06:48:58;93978.84;;;4.89;77.58
7474;BME280;3778;42.572;23.426;2024-03-17T06:51:25;93981.03;;;5.04;76.88
7474;BME280;3778;42.572;23.426;2024-03-17T06:53:50;93989.41;;;5.23;76.34
7474;BME280;3778;42.572;23.426;2024-03-17T06:56:15;93982.75;;;5.33;76.27
7474;BME280;3778;42.572;23.426;2024-03-17T06:58:41;93985.91;;;5.47;76.10
7474;BME280;3778;42.572;23.426;2024-03-17T07:01:08;93983.91;;;5.61;74.80
7474;BME280;3778;42.572;23.426;2024-03-17T07:03:33;93983.91;;;5.73;76.63
7474;BME280;3778;42.572;23.426;2024-03-17T07:06:00;93989.16;;;5.89;74.35
7474;BME280;3778;42.572;23.426;2024-03-17T07:08:28;93979.94;;;6.00;73.52
7474;BME280;3778;42.572;23.426;2024-03-17T07:11:05;93985.50;;;6.09;73.24
7474;BME280;3778;42.572;23.426;2024-03-17T07:13:32;93977.56;;;6.22;74.31
7474;BME280;3778;42.572;23.426;2024-03-17T07:15:59;93982.91;;;6.32;73.40
7474;BME280;3778;42.572;23.426;2024-03-17T07:18:26;93982.88;;;6.56;74.74
7474;BME280;3778;42.572;23.426;2024-03-17T07:20:52;93977.00;;;6.72;74.29
7474;BME280;3778;42.572;23.426;2024-03-17T07:23:18;93975.75;;;6.86;72.07
7474;BME280;3778;42.572;23.426;2024-03-17T07:25:54;93969.56;;;6.99;72.52
7474;BME280;3778;42.572;23.426;2024-03-17T07:28:20;93964.06;;;7.07;71.10
7474;BME280;3778;42.572;23.426;2024-03-17T07:30:57;93968.34;;;7.18;71.63
7474;BME280;3778;42.572;23.426;2024-03-17T07:33:23;93962.69;;;7.33;71.20
7474;BME280;3778;42.572;23.426;2024-03-17T07:35:54;93970.09;;;7.46;71.13
7474;BME280;3778;42.572;23.426;2024-03-17T07:38:22;93969.84;;;7.48;68.50
7474;BME280;3778;42.572;23.426;2024-03-17T07:41:01;93961.06;;;7.61;69.47
7474;BME280;3778;42.572;23.426;2024-03-17T07:43:27;93960.44;;;7.70;66.93
7474;BME280;3778;42.572;23.426;2024-03-17T07:46:03;93967.66;;;7.57;67.12
7474;BME280;3778;42.572;23.426;2024-03-17T07:48:32;93962.38;;;7.63;66.70
7474;BME280;3778;42.572;23.426;2024-03-17T07:50:59;93968.75;;;7.77;66.67
7474;BME280;3778;42.572;23.426;2024-03-17T07:53:26;93969.97;;;7.92;68.49
7474;BME280;3778;42.572;23.426;2024-03-17T07:58:24;93958.09;;;8.24;66.15
7474;BME280;3778;42.572;23.426;2024-03-17T08:00:57;93953.34;;;8.55;66.48
7474;BME280;3778;42.572;23.426;2024-03-17T08:03:25;93951.53;;;8.77;64.37
7474;BME280;3778;42.572;23.426;2024-03-17T08:05:51;93951.44;;;8.94;65.10
7474;BME280;3778;42.572;23.426;2024-03-17T08:08:18;93947.59;;;8.70;65.14
7474;BME280;3778;42.572;23.426;2024-03-17T08:10:43;93949.06;;;8.88;64.71
7474;BME280;3778;42.572;23.426;2024-03-17T08:13:08;93953.50;;;8.92;65.92
7474;BME280;3778;42.572;23.426;2024-03-17T08:15:35;93965.00;;;8.63;66.32
7474;BME280;3778;42.572;23.426;2024-03-17T08:18:00;93965.19;;;8.56;66.13
7474;BME280;3778;42.572;23.426;2024-03-17T08:20:26;93960.09;;;8.39;67.35
7474;BME280;3778;42.572;23.426;2024-03-17T08:23:01;93953.94;;;8.40;67.89
7474;BME280;3778;42.572;23.426;2024-03-17T08:25:26;93958.38;;;8.45;67.39
7474;BME280;3778;42.572;23.426;2024-03-17T08:27:52;93959.69;;;8.47;67.02
7474;BME280;3778;42.572;23.426;2024-03-17T08:30:17;93966.84;;;8.45;67.20
7474;BME280;3778;42.572;23.426;2024-03-17T08:32:43;93957.28;;;8.63;68.66
7474;BME280;3778;42.572;23.426;2024-03-17T08:35:10;93946.59;;;8.71;67.15
7474;BME280;3778;42.572;23.426;2024-03-17T08:37:38;93953.19;;;8.62;67.99
7474;BME280;3778;42.572;23.426;2024-03-17T08:40:04;93951.00;;;8.75;66.99
7474;BME280;3778;42.572;23.426;2024-03-17T08:42:32;93956.72;;;8.55;67.32
7474;BME280;3778;42.572;23.426;2024-03-17T08:44:57;93956.53;;;8.62;67.16
7474;BME280;3778;42.572;23.426;2024-03-17T08:47:23;93951.28;;;8.79;67.78
7474;BME280;3778;42.572;23.426;2024-03-17T08:49:50;93954.69;;;8.84;67.60
7474;BME280;3778;42.572;23.426;2024-03-17T08:52:17;93952.63;;;8.81;66.41
7474;BME280;3778;42.572;23.426;2024-03-17T08:54:46;93954.75;;;8.90;67.21
7474;BME280;3778;42.572;23.426;2024-03-17T08:57:12;93952.38;;;8.83;66.43
7474;BME280;3778;42.572;23.426;2024-03-17T08:59:37;93952.56;;;8.76;65.66
7474;BME280;3778;42.572;23.426;2024-03-17T09:02:03;93948.88;;;8.94;67.72
7474;BME280;3778;42.572;23.426;2024-03-17T09:04:29;93943.28;;;9.02;66.08
7474;BME280;3778;42.572;23.426;2024-03-17T09:06:54;93943.16;;;8.87;65.71
7474;BME280;3778;42.572;23.426;2024-03-17T09:09:22;93938.72;;;9.09;65.32
7474;BME280;3778;42.572;23.426;2024-03-17T09:11:47;93946.28;;;9.21;65.23
7474;BME280;3778;42.572;23.426;2024-03-17T09:14:13;93942.94;;;9.21;64.73
7474;BME280;3778;42.572;23.426;2024-03-17T09:16:38;93939.03;;;9.45;64.48
7474;BME280;3778;42.572;23.426;2024-03-17T09:19:03;93935.88;;;9.38;64.12
7474;BME280;3778;42.572;23.426;2024-03-17T09:21:29;93927.91;;;9.34;63.40
7474;BME280;3778;42.572;23.426;2024-03-17T09:23:54;93931.88;;;9.52;64.13
7474;BME280;3778;42.572;23.426;2024-03-17T09:26:20;93930.38;;;9.56;63.39
7474;BME280;3778;42.572;23.426;2024-03-17T09:28:45;93927.84;;;9.61;62.40
7474;BME280;3778;42.572;23.426;2024-03-17T09:31:11;93927.63;;;9.68;62.17
7474;BME280;3778;42.572;23.426;2024-03-17T09:33:37;93930.00;;;9.80;61.45
7474;BME280;3778;42.572;23.426;2024-03-17T09:36:05;93918.38;;;10.14;64.54
7474;BME280;3778;42.572;23.426;2024-03-17T09:38:35;93909.56;;;10.63;62.81
7474;BME280;3778;42.572;23.426;2024-03-17T09:41:01;93909.38;;;10.95;60.49
7474;BME280;3778;42.572;23.426;2024-03-17T09:43:28;93910.66;;;10.87;60.00
7474;BME280;3778;42.572;23.426;2024-03-17T09:45:54;93915.56;;;10.94;58.27
7474;BME280;3778;42.572;23.426;2024-03-17T09:48:24;93904.09;;;10.54;58.18
7474;BME280;3778;42.572;23.426;2024-03-17T09:50:56;93900.25;;;10.57;58.17
7474;BME280;3778;42.572;23.426;2024-03-17T09:53:29;93895.94;;;10.83;57.03
7474;BME280;3778;42.572;23.426;2024-03-17T09:56:11;93901.88;;;10.88;48.39
7474;BME280;3778;42.572;23.426;2024-03-17T09:58:37;93896.72;;;10.88;49.76
7474;BME280;3778;42.572;23.426;2024-03-17T10:01:03;93897.50;;;11.04;52.89
7474;BME280;3778;42.572;23.426;2024-03-17T10:03:46;93898.78;;;11.01;50.05
7474;BME280;3778;42.572;23.426;2024-03-17T10:06:15;93899.84;;;11.11;49.81
7474;BME280;3778;42.572;23.426;2024-03-17T10:08:50;93901.13;;;11.13;44.02
7474;BME280;3778;42.572;23.426;2024-03-17T10:11:18;93893.66;;;11.27;48.29
7474;BME280;3778;42.572;23.426;2024-03-17T10:13:45;93903.22;;;11.47;47.62
7474;BME280;3778;42.572;23.426;2024-03-17T10:16:24;93895.19;;;11.48;49.01
7474;BME280;3778;42.572;23.426;2024-03-17T10:19:05;93898.78;;;11.78;48.99
7474;BME280;3778;42.572;23.426;2024-03-17T10:21:31;93898.53;;;11.90;48.71
7474;BME280;3778;42.572;23.426;2024-03-17T10:24:07;93904.97;;;11.82;46.52
7474;BME280;3778;42.572;23.426;2024-03-17T10:26:53;93906.25;;;11.79;48.08
7474;BME280;3778;42.572;23.426;2024-03-17T10:31:54;93910.94;;;11.72;45.82
7474;BME280;3778;42.572;23.426;2024-03-17T10:34:21;93908.56;;;11.76;43.96
7474;BME280;3778;42.572;23.426;2024-03-17T10:37:05;93905.75;;;11.88;40.63
7474;BME280;3778;42.572;23.426;2024-03-17T10:39:31;93907.06;;;11.90;43.77
7474;BME280;3778;42.572;23.426;2024-03-17T10:42:00;93905.50;;;11.79;43.07
7474;BME280;3778;42.572;23.426;2024-03-17T10:44:29;93912.97;;;11.75;44.56
7474;BME280;3778;42.572;23.426;2024-03-17T10:46:56;93903.94;;;11.63;44.17
7474;BME280;3778;42.572;23.426;2024-03-17T10:49:30;93904.72;;;11.68;44.03
7474;BME280;3778;42.572;23.426;2024-03-17T10:51:59;93904.44;;;11.75;41.99
7474;BME280;3778;42.572;23.426;2024-03-17T10:54:25;93906.78;;;11.76;43.20
7474;BME280;3778;42.572;23.426;2024-03-17T10:56:55;93897.00;;;11.84;42.51
7474;BME280;3778;42.572;23.426;2024-03-17T10:59:37;93901.13;;;11.85;41.95
7474;BME280;3778;42.572;23.426;2024-03-17T11:02:04;93891.03;;;11.88;43.00
7474;BME280;3778;42.572;23.426;2024-03-17T11:04:41;93889.75;;;11.86;43.36
7474;BME280;3778;42.572;23.426;2024-03-17T11:07:15;93881.72;;;11.97;43.35
7474;BME280;3778;42.572;23.426;2024-03-17T11:09:43;93874.59;;;12.39;46.48
7474;BME280;3778;42.572;23.426;2024-03-17T11:17:53;93864.16;;;12.59;41.41
7474;BME280;3778;42.572;23.426;2024-03-17T11:20:24;93860.50;;;12.65;42.24
7474;BME280;3778;42.572;23.426;2024-03-17T11:22:54;93871.38;;;12.62;41.42
7474;BME280;3778;42.572;23.426;2024-03-17T11:27:53;93864.69;;;12.56;42.15
7474;BME280;3778;42.572;23.426;2024-03-17T11:47:01;93855.44;;;12.45;41.29
7474;BME280;3778;42.572;23.426;2024-03-17T11:54:37;93842.75;;;12.43;41.86
7474;BME280;3778;42.572;23.426;2024-03-17T11:57:10;93845.16;;;12.34;44.18
7474;BME280;3778;42.572;23.426;2024-03-17T11:59:36;93835.88;;;12.28;44.75
7474;BME280;3778;42.572;23.426;2024-03-17T12:02:10;93844.72;;;12.07;43.06
7474;BME280;3778;42.572;23.426;2024-03-17T12:04:40;93844.69;;;12.17;43.56
7474;BME280;3778;42.572;23.426;2024-03-17T12:07:12;93835.84;;;12.33;45.99
7474;BME280;3778;42.572;23.426;2024-03-17T12:09:38;93838.88;;;12.51;45.60
7474;BME280;3778;42.572;23.426;2024-03-17T12:12:29;93845.63;;;12.42;45.49
7474;BME280;3778;42.572;23.426;2024-03-17T12:15:01;93843.28;;;12.45;47.88
7474;BME280;3778;42.572;23.426;2024-03-17T12:17:27;93837.44;;;12.24;47.27
7474;BME280;3778;42.572;23.426;2024-03-17T12:19:53;93833.69;;;12.51;45.72
7474;BME280;3778;42.572;23.426;2024-03-17T12:22:23;93839.16;;;12.83;46.99
7474;BME280;3778;42.572;23.426;2024-03-17T12:24:51;93835.19;;;12.62;47.13
7474;BME280;3778;42.572;23.426;2024-03-17T12:27:18;93833.44;;;12.47;45.19
7474;BME280;3778;42.572;23.426;2024-03-17T12:29:44;93824.28;;;12.65;46.20
7474;BME280;3778;42.572;23.426;2024-03-17T12:32:16;93827.34;;;12.72;44.96
7474;BME280;3778;42.572;23.426;2024-03-17T12:34:45;93825.47;;;12.83;45.86
7474;BME280;3778;42.572;23.426;2024-03-17T12:39:44;93825.00;;;13.10;41.85
7474;BME280;3778;42.572;23.426;2024-03-17T12:42:14;93818.22;;;13.19;43.29
7474;BME280;3778;42.572;23.426;2024-03-17T12:44:46;93830.03;;;12.96;41.41
7474;BME280;3778;42.572;23.426;2024-03-17T12:47:16;93827.50;;;12.47;42.41
7474;BME280;3778;42.572;23.426;2024-03-17T12:49:46;93823.25;;;12.17;44.35
7474;BME280;3778;42.572;23.426;2024-03-17T12:54:44;93824.00;;;12.27;44.66
7474;BME280;3778;42.572;23.426;2024-03-17T12:57:20;93811.69;;;12.04;44.50
7474;BME280;3778;42.572;23.426;2024-03-17T13:00:17;93831.88;;;11.97;46.84
7474;BME280;3778;42.572;23.426;2024-03-17T13:03:02;93831.28;;;12.15;45.65
7474;BME280;3778;42.572;23.426;2024-03-17T13:05:28;93823.00;;;12.18;46.49
7474;BME280;3778;42.572;23.426;2024-03-17T13:07:54;93818.13;;;12.06;46.53
7474;BME280;3778;42.572;23.426;2024-03-17T13:10:24;93825.84;;;12.12;48.69
7474;BME280;3778;42.572;23.426;2024-03-17T13:12:59;93811.53;;;12.79;47.91
7474;BME280;3778;42.572;23.426;2024-03-17T13:15:29;93816.16;;;13.16;46.03
7474;BME280;3778;42.572;23.426;2024-03-17T13:17:57;93801.75;;;12.71;47.51
7474;BME280;3778;42.572;23.426;2024-03-17T13:20:22;93809.06;;;12.64;47.41
7474;BME280;3778;42.572;23.426;2024-03-17T13:22:48;93808.06;;;12.94;47.50
7474;BME280;3778;42.572;23.426;2024-03-17T13:25:15;93819.06;;;12.75;47.83
7474;BME280;3778;42.572;23.426;2024-03-17T13:27:42;93815.66;;;12.35;48.67
7474;BME280;3778;42.572;23.426;2024-03-17T13:30:08;93811.09;;;12.22;49.41
7474;BME280;3778;42.572;23.426;2024-03-17T13:32:35;93820.50;;;11.98;50.29
7474;BME280;3778;42.572;23.426;2024-03-17T13:35:01;93817.44;;;11.70;51.97
7474;BME280;3778;42.572;23.426;2024-03-17T13:37:27;93818.97;;;11.76;51.94
7474;BME280;3778;42.572;23.426;2024-03-17T13:39:52;93805.84;;;11.73;51.34
7474;BME280;3778;42.572;23.426;2024-03-17T13:42:18;93821.13;;;11.54;52.60
7474;BME280;3778;42.572;23.426;2024-03-17T13:44:43;93812.06;;;11.62;53.25
7474;BME280;3778;42.572;23.426;2024-03-17T13:47:08;93819.03;;;11.61;52.83
7474;BME280;3778;42.572;23.426;2024-03-17T13:49:34;93824.50;;;11.34;54.49
7474;BME280;3778;42.572;23.426;2024-03-17T13:51:59;93819.06;;;11.51;53.95
7474;BME280;3778;42.572;23.426;2024-03-17T13:54:25;93817.00;;;11.53;53.65
7474;BME280;3778;42.572;23.426;2024-03-17T13:56:51;93819.59;;;11.33;53.84
7474;BME280;3778;42.572;23.426;2024-03-17T13:59:16;93813.66;;;11.22;55.15
7474;BME280;3778;42.572;23.426;2024-03-17T14:01:45;93817.81;;;11.23;55.02